sensor_id;sensor_type;location;lat;lon;timestamp;P1;durP1;ratioP1;P2;durP2;ratioP2
9102;SDS011;4587;51.434;6.788;2023-03-05T00:01:20;10.43;;;2.53;;
9102;SDS011;4587;51.434;6.788;2023-03-05T00:03:48;9.10;;;2.40;;
9102;SDS011;4587;51.434;6.788;2023-03-05T00:06:16;15.50;;;3.03;;
9102;SDS011;4587;51.434;6.788;2023-03-05T00:08:42;12.97;;;2.97;;
9102;SDS011;4587;51.434;6.788;2023-03-05T00:11:08;10.37;;;2.63;;
9102;SDS011;4587;51.434;6.788;2023-03-05T00:13:35;13.03;;;3.53;;
9102;SDS011;4587;51.434;6.788;2023-03-05T00:16:05;11.77;;;3.07;;
9102;SDS011;4587;51.434;6.788;2023-03-05T00:18:33;11.27;;;3.17;;
9102;SDS011;4587;51.434;6.788;2023-03-05T00:20:58;8.73;;;3.20;;
9102;SDS011;4587;51.434;6.788;2023-03-05T00:23:24;15.43;;;3.70;;
9102;SDS011;4587;51.434;6.788;2023-03-05T00:25:50;11.07;;;3.33;;
9102;SDS011;4587;51.434;6.788;2023-03-05T00:28:15;15.10;;;3.20;;
9102;SDS011;4587;51.434;6.788;2023-03-05T00:30:41;10.33;;;2.90;;
9102;SDS011;4587;51.434;6.788;2023-03-05T00:33:07;11.40;;;2.77;;
9102;SDS011;4587;51.434;6.788;2023-03-05T00:35:42;6.70;;;2.90;;
9102;SDS011;4587;51.434;6.788;2023-03-05T00:38:09;8.77;;;3.10;;
9102;SDS011;4587;51.434;6.788;2023-03-05T00:40:36;11.67;;;3.07;;
9102;SDS011;4587;51.434;6.788;2023-03-05T00:43:03;12.97;;;3.17;;
9102;SDS011;4587;51.434;6.788;2023-03-05T00:45:29;11.17;;;3.33;;
9102;SDS011;4587;51.434;6.788;2023-03-05T00:47:55;11.03;;;3.67;;
9102;SDS011;4587;51.434;6.788;2023-03-05T00:50:20;9.13;;;3.30;;
9102;SDS011;4587;51.434;6.788;2023-03-05T00:52:46;13.77;;;3.77;;
9102;SDS011;4587;51.434;6.788;2023-03-05T00:55:11;11.87;;;3.53;;
9102;SDS011;4587;51.434;6.788;2023-03-05T00:57:37;8.53;;;3.10;;
9102;SDS011;4587;51.434;6.788;2023-03-05T01:00:03;11.27;;;3.13;;
9102;SDS011;4587;51.434;6.788;2023-03-05T01:02:29;12.03;;;3.40;;
9102;SDS011;4587;51.434;6.788;2023-03-05T01:04:55;13.03;;;2.97;;
9102;SDS011;4587;51.434;6.788;2023-03-05T01:07:20;11.77;;;3.00;;
9102;SDS011;4587;51.434;6.788;2023-03-05T01:09:46;10.13;;;2.70;;
9102;SDS011;4587;51.434;6.788;2023-03-05T01:12:11;11.83;;;2.73;;
9102;SDS011;4587;51.434;6.788;2023-03-05T01:14:37;6.67;;;2.30;;
9102;SDS011;4587;51.434;6.788;2023-03-05T01:17:02;9.40;;;2.67;;
9102;SDS011;4587;51.434;6.788;2023-03-05T01:19:28;8.07;;;2.30;;
9102;SDS011;4587;51.434;6.788;2023-03-05T01:21:54;9.73;;;2.30;;
9102;SDS011;4587;51.434;6.788;2023-03-05T01:24:20;7.73;;;2.37;;
9102;SDS011;4587;51.434;6.788;2023-03-05T01:26:45;10.87;;;2.47;;
9102;SDS011;4587;51.434;6.788;2023-03-05T01:29:11;7.07;;;2.13;;
9102;SDS011;4587;51.434;6.788;2023-03-05T01:31:37;7.47;;;2.20;;
9102;SDS011;4587;51.434;6.788;2023-03-05T01:34:02;10.77;;;2.70;;
9102;SDS011;4587;51.434;6.788;2023-03-05T01:36:28;8.53;;;2.37;;
9102;SDS011;4587;51.434;6.788;2023-03-05T01:38:54;8.03;;;2.00;;
9102;SDS011;4587;51.434;6.788;2023-03-05T01:41:19;10.27;;;2.60;;
9102;SDS011;4587;51.434;6.788;2023-03-05T01:43:46;7.13;;;2.20;;
9102;SDS011;4587;51.434;6.788;2023-03-05T01:46:29;11.00;;;2.60;;
9102;SDS011;4587;51.434;6.788;2023-03-05T01:51:41;8.63;;;2.47;;
9102;SDS011;4587;51.434;6.788;2023-03-05T01:54:12;8.47;;;2.57;;
9102;SDS011;4587;51.434;6.788;2023-03-05T01:56:39;9.33;;;2.80;;
9102;SDS011;4587;51.434;6.788;2023-03-05T01:59:06;13.20;;;2.53;;
9102;SDS011;4587;51.434;6.788;2023-03-05T02:01:35;9.83;;;2.40;;
9102;SDS011;4587;51.434;6.788;2023-03-05T02:04:05;10.03;;;2.10;;
9102;SDS011;4587;51.434;6.788;2023-03-05T02:06:32;8.30;;;2.67;;
9102;SDS011;4587;51.434;6.788;2023-03-05T02:08:58;8.53;;;2.20;;
9102;SDS011;4587;51.434;6.788;2023-03-05T02:11:24;10.93;;;2.50;;
9102;SDS011;4587;51.434;6.788;2023-03-05T02:13:50;10.10;;;2.53;;
9102;SDS011;4587;51.434;6.788;2023-03-05T02:16:16;8.70;;;2.77;;
9102;SDS011;4587;51.434;6.788;2023-03-05T02:18:42;8.50;;;2.20;;
9102;SDS011;4587;51.434;6.788;2023-03-05T02:21:08;10.57;;;2.77;;
9102;SDS011;4587;51.434;6.788;2023-03-05T02:23:35;10.20;;;2.80;;
9102;SDS011;4587;51.434;6.788;2023-03-05T02:26:02;8.87;;;2.97;;
9102;SDS011;4587;51.434;6.788;2023-03-05T02:28:31;10.03;;;3.17;;
9102;SDS011;4587;51.434;6.788;2023-03-05T02:30:57;11.90;;;3.43;;
9102;SDS011;4587;51.434;6.788;2023-03-05T02:33:23;14.00;;;3.37;;
9102;SDS011;4587;51.434;6.788;2023-03-05T02:35:48;9.23;;;2.90;;
9102;SDS011;4587;51.434;6.788;2023-03-05T02:38:15;10.13;;;3.07;;
9102;SDS011;4587;51.434;6.788;2023-03-05T02:40:42;10.50;;;3.07;;
9102;SDS011;4587;51.434;6.788;2023-03-05T02:43:08;10.33;;;3.37;;
9102;SDS011;4587;51.434;6.788;2023-03-05T02:45:34;12.30;;;3.50;;
9102;SDS011;4587;51.434;6.788;2023-03-05T02:48:00;13.93;;;3.80;;
9102;SDS011;4587;51.434;6.788;2023-03-05T02:50:26;8.43;;;3.23;;
9102;SDS011;4587;51.434;6.788;2023-03-05T02:52:52;10.93;;;3.40;;
9102;SDS011;4587;51.434;6.788;2023-03-05T02:55:18;10.13;;;3.37;;
9102;SDS011;4587;51.434;6.788;2023-03-05T02:57:43;10.97;;;3.73;;
9102;SDS011;4587;51.434;6.788;2023-03-05T03:00:09;10.90;;;3.30;;
9102;SDS011;4587;51.434;6.788;2023-03-05T03:02:35;14.60;;;3.33;;
9102;SDS011;4587;51.434;6.788;2023-03-05T03:05:01;9.70;;;3.10;;
9102;SDS011;4587;51.434;6.788;2023-03-05T03:07:27;9.77;;;3.00;;
9102;SDS011;4587;51.434;6.788;2023-03-05T03:09:52;9.67;;;3.20;;
9102;SDS011;4587;51.434;6.788;2023-03-05T03:12:18;9.50;;;2.90;;
9102;SDS011;4587;51.434;6.788;2023-03-05T03:14:43;13.17;;;3.50;;
9102;SDS011;4587;51.434;6.788;2023-03-05T03:17:13;10.93;;;3.23;;
9102;SDS011;4587;51.434;6.788;2023-03-05T03:19:41;11.73;;;3.07;;
9102;SDS011;4587;51.434;6.788;2023-03-05T03:22:07;5.27;;;2.33;;
9102;SDS011;4587;51.434;6.788;2023-03-05T03:24:34;10.03;;;3.13;;
9102;SDS011;4587;51.434;6.788;2023-03-05T03:27:01;10.30;;;2.70;;
9102;SDS011;4587;51.434;6.788;2023-03-05T03:29:27;12.43;;;3.27;;
9102;SDS011;4587;51.434;6.788;2023-03-05T03:31:52;6.63;;;2.63;;
9102;SDS011;4587;51.434;6.788;2023-03-05T03:34:38;9.83;;;2.70;;
9102;SDS011;4587;51.434;6.788;2023-03-05T03:37:04;10.30;;;2.90;;
9102;SDS011;4587;51.434;6.788;2023-03-05T03:39:30;6.57;;;2.30;;
9102;SDS011;4587;51.434;6.788;2023-03-05T03:41:55;6.50;;;2.37;;
9102;SDS011;4587;51.434;6.788;2023-03-05T03:44:21;11.83;;;3.03;;
9102;SDS011;4587;51.434;6.788;2023-03-05T03:46:48;8.53;;;2.20;;
9102;SDS011;4587;51.434;6.788;2023-03-05T03:49:18;9.93;;;2.33;;
9102;SDS011;4587;51.434;6.788;2023-03-05T03:51:45;7.10;;;2.50;;
9102;SDS011;4587;51.434;6.788;2023-03-05T03:54:12;10.47;;;2.77;;
9102;SDS011;4587;51.434;6.788;2023-03-05T03:56:38;10.53;;;2.47;;
9102;SDS011;4587;51.434;6.788;2023-03-05T03:59:04;4.00;;;2.00;;
9102;SDS011;4587;51.434;6.788;2023-03-05T04:01:29;8.17;;;2.30;;
9102;SDS011;4587;51.434;6.788;2023-03-05T04:03:55;6.93;;;1.87;;
9102;SDS011;4587;51.434;6.788;2023-03-05T04:06:20;5.87;;;1.80;;
9102;SDS011;4587;51.434;6.788;2023-03-05T04:08:46;9.00;;;1.77;;
9102;SDS011;4587;51.434;6.788;2023-03-05T04:11:11;9.03;;;2.20;;
9102;SDS011;4587;51.434;6.788;2023-03-05T04:13:38;9.43;;;2.40;;
9102;SDS011;4587;51.434;6.788;2023-03-05T04:16:04;11.73;;;2.30;;
9102;SDS011;4587;51.434;6.788;2023-03-05T04:18:30;8.93;;;2.53;;
9102;SDS011;4587;51.434;6.788;2023-03-05T04:20:55;8.33;;;2.47;;
9102;SDS011;4587;51.434;6.788;2023-03-05T04:23:21;11.77;;;2.90;;
9102;SDS011;4587;51.434;6.788;2023-03-05T04:25:46;8.17;;;2.20;;
9102;SDS011;4587;51.434;6.788;2023-03-05T04:28:12;7.23;;;2.67;;
9102;SDS011;4587;51.434;6.788;2023-03-05T04:30:37;10.33;;;3.00;;
9102;SDS011;4587;51.434;6.788;2023-03-05T04:33:03;13.13;;;3.03;;
9102;SDS011;4587;51.434;6.788;2023-03-05T04:35:29;11.83;;;3.13;;
9102;SDS011;4587;51.434;6.788;2023-03-05T04:37:54;11.33;;;3.33;;
9102;SDS011;4587;51.434;6.788;2023-03-05T04:40:20;10.13;;;3.27;;
9102;SDS011;4587;51.434;6.788;2023-03-05T04:42:46;8.23;;;3.23;;
9102;SDS011;4587;51.434;6.788;2023-03-05T04:45:12;9.43;;;2.60;;
9102;SDS011;4587;51.434;6.788;2023-03-05T04:47:38;7.13;;;2.40;;
9102;SDS011;4587;51.434;6.788;2023-03-05T04:50:04;8.70;;;2.67;;
9102;SDS011;4587;51.434;6.788;2023-03-05T04:52:30;6.13;;;2.33;;
9102;SDS011;4587;51.434;6.788;2023-03-05T04:54:56;13.00;;;2.90;;
9102;SDS011;4587;51.434;6.788;2023-03-05T04:57:22;7.50;;;2.10;;
9102;SDS011;4587;51.434;6.788;2023-03-05T04:59:48;10.10;;;2.70;;
9102;SDS011;4587;51.434;6.788;2023-03-05T05:02:13;10.17;;;2.50;;
9102;SDS011;4587;51.434;6.788;2023-03-05T05:04:39;7.57;;;2.67;;
9102;SDS011;4587;51.434;6.788;2023-03-05T05:07:08;10.37;;;2.63;;
9102;SDS011;4587;51.434;6.788;2023-03-05T05:09:35;9.40;;;2.57;;
9102;SDS011;4587;51.434;6.788;2023-03-05T05:12:02;11.47;;;2.67;;
9102;SDS011;4587;51.434;6.788;2023-03-05T05:14:28;10.60;;;2.67;;
9102;SDS011;4587;51.434;6.788;2023-03-05T05:16:53;7.00;;;2.50;;
9102;SDS011;4587;51.434;6.788;2023-03-05T05:19:19;7.03;;;2.27;;
9102;SDS011;4587;51.434;6.788;2023-03-05T05:21:44;12.97;;;2.77;;
9102;SDS011;4587;51.434;6.788;2023-03-05T05:24:10;6.67;;;2.00;;
9102;SDS011;4587;51.434;6.788;2023-03-05T05:26:35;12.17;;;2.67;;
9102;SDS011;4587;51.434;6.788;2023-03-05T05:29:01;12.43;;;2.57;;
9102;SDS011;4587;51.434;6.788;2023-03-05T05:31:27;10.17;;;2.87;;
9102;SDS011;4587;51.434;6.788;2023-03-05T05:33:52;9.83;;;2.40;;
9102;SDS011;4587;51.434;6.788;2023-03-05T05:36:18;7.40;;;2.20;;
9102;SDS011;4587;51.434;6.788;2023-03-05T05:38:46;8.73;;;2.57;;
9102;SDS011;4587;51.434;6.788;2023-03-05T05:41:13;10.10;;;2.60;;
9102;SDS011;4587;51.434;6.788;2023-03-05T05:43:40;12.90;;;2.80;;
9102;SDS011;4587;51.434;6.788;2023-03-05T05:46:06;10.77;;;2.97;;
9102;SDS011;4587;51.434;6.788;2023-03-05T05:48:35;9.97;;;2.80;;
9102;SDS011;4587;51.434;6.788;2023-03-05T05:51:07;10.37;;;2.70;;
9102;SDS011;4587;51.434;6.788;2023-03-05T05:53:35;10.17;;;3.27;;
9102;SDS011;4587;51.434;6.788;2023-03-05T05:56:03;9.60;;;2.47;;
9102;SDS011;4587;51.434;6.788;2023-03-05T05:58:29;12.23;;;2.83;;
9102;SDS011;4587;51.434;6.788;2023-03-05T06:00:55;10.90;;;3.27;;
9102;SDS011;4587;51.434;6.788;2023-03-05T06:03:20;6.83;;;2.53;;
9102;SDS011;4587;51.434;6.788;2023-03-05T06:05:46;10.80;;;3.07;;
9102;SDS011;4587;51.434;6.788;2023-03-05T06:08:12;11.57;;;2.90;;
9102;SDS011;4587;51.434;6.788;2023-03-05T06:10:37;8.97;;;2.93;;
9102;SDS011;4587;51.434;6.788;2023-03-05T06:13:03;11.27;;;3.50;;
9102;SDS011;4587;51.434;6.788;2023-03-05T06:15:29;5.60;;;2.87;;
9102;SDS011;4587;51.434;6.788;2023-03-05T06:17:55;8.07;;;2.70;;
9102;SDS011;4587;51.434;6.788;2023-03-05T06:20:20;7.43;;;2.90;;
9102;SDS011;4587;51.434;6.788;2023-03-05T06:22:47;10.50;;;3.33;;
9102;SDS011;4587;51.434;6.788;2023-03-05T06:25:12;11.90;;;3.20;;
9102;SDS011;4587;51.434;6.788;2023-03-05T06:27:38;11.80;;;3.10;;
9102;SDS011;4587;51.434;6.788;2023-03-05T06:30:04;12.33;;;3.27;;
9102;SDS011;4587;51.434;6.788;2023-03-05T06:32:30;11.93;;;3.67;;
9102;SDS011;4587;51.434;6.788;2023-03-05T06:34:56;7.13;;;3.20;;
9102;SDS011;4587;51.434;6.788;2023-03-05T06:37:25;11.43;;;3.53;;
9102;SDS011;4587;51.434;6.788;2023-03-05T06:39:50;14.93;;;3.30;;
9102;SDS011;4587;51.434;6.788;2023-03-05T06:42:16;11.77;;;3.70;;
9102;SDS011;4587;51.434;6.788;2023-03-05T06:44:43;9.70;;;3.00;;
9102;SDS011;4587;51.434;6.788;2023-03-05T06:47:08;15.73;;;3.27;;
9102;SDS011;4587;51.434;6.788;2023-03-05T06:49:34;9.57;;;3.00;;
9102;SDS011;4587;51.434;6.788;2023-03-05T06:52:04;8.83;;;3.37;;
9102;SDS011;4587;51.434;6.788;2023-03-05T06:54:30;8.70;;;3.13;;
9102;SDS011;4587;51.434;6.788;2023-03-05T06:56:56;8.97;;;3.73;;
9102;SDS011;4587;51.434;6.788;2023-03-05T06:59:22;7.23;;;2.77;;
9102;SDS011;4587;51.434;6.788;2023-03-05T07:01:48;10.30;;;3.90;;
9102;SDS011;4587;51.434;6.788;2023-03-05T07:04:13;10.73;;;4.20;;
9102;SDS011;4587;51.434;6.788;2023-03-05T07:06:40;11.17;;;3.40;;
9102;SDS011;4587;51.434;6.788;2023-03-05T07:09:07;8.17;;;3.50;;
9102;SDS011;4587;51.434;6.788;2023-03-05T07:11:34;9.10;;;3.50;;
9102;SDS011;4587;51.434;6.788;2023-03-05T07:14:00;12.07;;;3.40;;
9102;SDS011;4587;51.434;6.788;2023-03-05T07:16:28;11.40;;;3.00;;
9102;SDS011;4587;51.434;6.788;2023-03-05T07:18:56;8.57;;;2.90;;
9102;SDS011;4587;51.434;6.788;2023-03-05T07:21:24;9.37;;;3.13;;
9102;SDS011;4587;51.434;6.788;2023-03-05T07:23:53;7.60;;;3.20;;
9102;SDS011;4587;51.434;6.788;2023-03-05T07:26:19;8.67;;;3.50;;
9102;SDS011;4587;51.434;6.788;2023-03-05T07:28:46;13.50;;;3.77;;
9102;SDS011;4587;51.434;6.788;2023-03-05T07:31:12;9.30;;;3.60;;
9102;SDS011;4587;51.434;6.788;2023-03-05T07:33:40;7.97;;;3.37;;
9102;SDS011;4587;51.434;6.788;2023-03-05T07:36:08;13.17;;;3.40;;
9102;SDS011;4587;51.434;6.788;2023-03-05T07:38:35;12.93;;;3.77;;
9102;SDS011;4587;51.434;6.788;2023-03-05T07:41:02;8.83;;;3.50;;
9102;SDS011;4587;51.434;6.788;2023-03-05T07:43:29;10.43;;;3.70;;
9102;SDS011;4587;51.434;6.788;2023-03-05T07:45:54;11.67;;;3.13;;
9102;SDS011;4587;51.434;6.788;2023-03-05T07:48:20;10.30;;;3.70;;
9102;SDS011;4587;51.434;6.788;2023-03-05T07:50:46;10.90;;;3.60;;
9102;SDS011;4587;51.434;6.788;2023-03-05T07:53:12;10.73;;;3.70;;
9102;SDS011;4587;51.434;6.788;2023-03-05T07:55:42;8.97;;;3.63;;
9102;SDS011;4587;51.434;6.788;2023-03-05T07:58:11;10.90;;;3.70;;
9102;SDS011;4587;51.434;6.788;2023-03-05T08:00:37;12.90;;;3.83;;
9102;SDS011;4587;51.434;6.788;2023-03-05T08:03:03;10.77;;;4.07;;
9102;SDS011;4587;51.434;6.788;2023-03-05T08:05:29;9.20;;;3.60;;
9102;SDS011;4587;51.434;6.788;2023-03-05T08:07:54;10.50;;;3.70;;
9102;SDS011;4587;51.434;6.788;2023-03-05T08:10:20;12.83;;;3.80;;
9102;SDS011;4587;51.434;6.788;2023-03-05T08:12:45;14.30;;;3.70;;
9102;SDS011;4587;51.434;6.788;2023-03-05T08:15:11;11.70;;;3.70;;
9102;SDS011;4587;51.434;6.788;2023-03-05T08:17:36;9.23;;;3.57;;
9102;SDS011;4587;51.434;6.788;2023-03-05T08:20:02;11.17;;;4.10;;
9102;SDS011;4587;51.434;6.788;2023-03-05T08:22:32;12.70;;;4.27;;
9102;SDS011;4587;51.434;6.788;2023-03-05T08:24:59;11.17;;;4.50;;
9102;SDS011;4587;51.434;6.788;2023-03-05T08:27:25;11.33;;;4.03;;
9102;SDS011;4587;51.434;6.788;2023-03-05T08:29:51;11.87;;;4.27;;
9102;SDS011;4587;51.434;6.788;2023-03-05T08:32:16;11.43;;;3.80;;
9102;SDS011;4587;51.434;6.788;2023-03-05T08:34:42;8.63;;;3.47;;
9102;SDS011;4587;51.434;6.788;2023-03-05T08:37:07;8.87;;;4.17;;
9102;SDS011;4587;51.434;6.788;2023-03-05T08:39:34;13.33;;;3.57;;
9102;SDS011;4587;51.434;6.788;2023-03-05T08:42:00;8.80;;;3.47;;
9102;SDS011;4587;51.434;6.788;2023-03-05T08:44:25;9.87;;;3.83;;
9102;SDS011;4587;51.434;6.788;2023-03-05T08:46:51;9.10;;;3.97;;
9102;SDS011;4587;51.434;6.788;2023-03-05T08:49:16;9.97;;;5.10;;
9102;SDS011;4587;51.434;6.788;2023-03-05T08:51:42;10.63;;;5.23;;
9102;SDS011;4587;51.434;6.788;2023-03-05T08:54:08;8.77;;;5.00;;
9102;SDS011;4587;51.434;6.788;2023-03-05T08:56:33;9.33;;;5.37;;
9102;SDS011;4587;51.434;6.788;2023-03-05T08:58:59;10.40;;;6.27;;
9102;SDS011;4587;51.434;6.788;2023-03-05T09:01:25;8.90;;;5.60;;
9102;SDS011;4587;51.434;6.788;2023-03-05T09:03:51;9.23;;;5.27;;
9102;SDS011;4587;51.434;6.788;2023-03-05T09:06:17;12.60;;;5.43;;
9102;SDS011;4587;51.434;6.788;2023-03-05T09:08:43;9.93;;;5.63;;
9102;SDS011;4587;51.434;6.788;2023-03-05T09:11:10;11.83;;;5.60;;
9102;SDS011;4587;51.434;6.788;2023-03-05T09:13:37;15.57;;;5.67;;
9102;SDS011;4587;51.434;6.788;2023-03-05T09:16:03;15.97;;;5.80;;
9102;SDS011;4587;51.434;6.788;2023-03-05T09:18:35;11.97;;;5.70;;
9102;SDS011;4587;51.434;6.788;2023-03-05T09:21:05;12.63;;;6.63;;
9102;SDS011;4587;51.434;6.788;2023-03-05T09:23:35;14.43;;;6.47;;
9102;SDS011;4587;51.434;6.788;2023-03-05T09:26:03;10.37;;;5.33;;
9102;SDS011;4587;51.434;6.788;2023-03-05T09:28:30;11.90;;;7.40;;
9102;SDS011;4587;51.434;6.788;2023-03-05T09:30:55;13.47;;;7.33;;
9102;SDS011;4587;51.434;6.788;2023-03-05T09:33:21;11.60;;;6.50;;
9102;SDS011;4587;51.434;6.788;2023-03-05T09:35:46;10.97;;;6.20;;
9102;SDS011;4587;51.434;6.788;2023-03-05T09:38:12;14.00;;;5.97;;
9102;SDS011;4587;51.434;6.788;2023-03-05T09:40:47;9.67;;;5.63;;
9102;SDS011;4587;51.434;6.788;2023-03-05T09:43:39;8.87;;;5.63;;
9102;SDS011;4587;51.434;6.788;2023-03-05T09:46:31;10.33;;;5.43;;
9102;SDS011;4587;51.434;6.788;2023-03-05T09:51:38;9.80;;;5.20;;
9102;SDS011;4587;51.434;6.788;2023-03-05T09:54:11;8.53;;;5.63;;
9102;SDS011;4587;51.434;6.788;2023-03-05T09:56:41;9.83;;;5.43;;
9102;SDS011;4587;51.434;6.788;2023-03-05T10:01:52;7.87;;;4.93;;
9102;SDS011;4587;51.434;6.788;2023-03-05T10:12:17;8.33;;;4.73;;
9102;SDS011;4587;51.434;6.788;2023-03-05T10:14:45;7.33;;;4.53;;
9102;SDS011;4587;51.434;6.788;2023-03-05T10:19:57;7.67;;;4.27;;
9102;SDS011;4587;51.434;6.788;2023-03-05T10:38:16;7.37;;;4.10;;
9102;SDS011;4587;51.434;6.788;2023-03-05T10:41:00;5.63;;;3.77;;
9102;SDS011;4587;51.434;6.788;2023-03-05T10:46:56;5.73;;;3.60;;
9102;SDS011;4587;51.434;6.788;2023-03-05T10:49:27;4.33;;;3.37;;
9102;SDS011;4587;51.434;6.788;2023-03-05T10:51:57;7.17;;;2.50;;
9102;SDS011;4587;51.434;6.788;2023-03-05T10:54:32;7.07;;;2.90;;
9102;SDS011;4587;51.434;6.788;2023-03-05T10:59:46;5.33;;;2.67;;
9102;SDS011;4587;51.434;6.788;2023-03-05T11:02:17;4.47;;;2.70;;
9102;SDS011;4587;51.434;6.788;2023-03-05T11:04:44;3.77;;;2.53;;
9102;SDS011;4587;51.434;6.788;2023-03-05T11:09:39;4.13;;;2.50;;
9102;SDS011;4587;51.434;6.788;2023-03-05T11:12:28;6.27;;;2.80;;
9102;SDS011;4587;51.434;6.788;2023-03-05T11:25:52;6.30;;;3.20;;
9102;SDS011;4587;51.434;6.788;2023-03-05T11:28:40;4.87;;;3.10;;
9102;SDS011;4587;51.434;6.788;2023-03-05T11:31:25;4.87;;;3.40;;
9102;SDS011;4587;51.434;6.788;2023-03-05T11:33:59;6.23;;;3.53;;
9102;SDS011;4587;51.434;6.788;2023-03-05T11:36:39;6.83;;;3.60;;
9102;SDS011;4587;51.434;6.788;2023-03-05T11:46:46;6.73;;;3.27;;
9102;SDS011;4587;51.434;6.788;2023-03-05T11:49:17;5.80;;;2.90;;
9102;SDS011;4587;51.434;6.788;2023-03-05T11:54:18;7.17;;;2.83;;
9102;SDS011;4587;51.434;6.788;2023-03-05T11:56:50;5.30;;;2.27;;
9102;SDS011;4587;51.434;6.788;2023-03-05T11:59:17;4.73;;;1.87;;
9102;SDS011;4587;51.434;6.788;2023-03-05T12:01:48;4.73;;;2.20;;
9102;SDS011;4587;51.434;6.788;2023-03-05T12:04:19;3.50;;;2.10;;
9102;SDS011;4587;51.434;6.788;2023-03-05T12:06:47;4.57;;;2.17;;
9102;SDS011;4587;51.434;6.788;2023-03-05T12:11:55;4.07;;;2.10;;
9102;SDS011;4587;51.434;6.788;2023-03-05T12:20:26;2.80;;;2.03;;
9102;SDS011;4587;51.434;6.788;2023-03-05T12:23:00;2.97;;;2.10;;
9102;SDS011;4587;51.434;6.788;2023-03-05T12:25:29;3.80;;;2.00;;
9102;SDS011;4587;51.434;6.788;2023-03-05T12:27:56;3.87;;;2.00;;
9102;SDS011;4587;51.434;6.788;2023-03-05T12:33:12;3.63;;;1.87;;
9102;SDS011;4587;51.434;6.788;2023-03-05T12:38:45;2.70;;;1.93;;
9102;SDS011;4587;51.434;6.788;2023-03-05T12:46:32;4.33;;;2.50;;
9102;SDS011;4587;51.434;6.788;2023-03-05T12:51:51;5.63;;;2.50;;
9102;SDS011;4587;51.434;6.788;2023-03-05T12:54:36;2.70;;;2.07;;
9102;SDS011;4587;51.434;6.788;2023-03-05T12:59:49;4.70;;;1.83;;
9102;SDS011;4587;51.434;6.788;2023-03-05T13:02:26;5.13;;;2.20;;
9102;SDS011;4587;51.434;6.788;2023-03-05T13:04:57;3.60;;;2.60;;
9102;SDS011;4587;51.434;6.788;2023-03-05T13:07:24;4.53;;;2.80;;
9102;SDS011;4587;51.434;6.788;2023-03-05T13:09:51;5.07;;;2.20;;
9102;SDS011;4587;51.434;6.788;2023-03-05T13:12:19;3.40;;;2.30;;
9102;SDS011;4587;51.434;6.788;2023-03-05T13:14:45;2.93;;;2.30;;
9102;SDS011;4587;51.434;6.788;2023-03-05T13:19:59;2.57;;;1.50;;
9102;SDS011;4587;51.434;6.788;2023-03-05T13:22:25;2.33;;;1.50;;
9102;SDS011;4587;51.434;6.788;2023-03-05T13:27:50;2.80;;;1.60;;
9102;SDS011;4587;51.434;6.788;2023-03-05T13:30:22;3.83;;;1.70;;
9102;SDS011;4587;51.434;6.788;2023-03-05T13:32:51;3.77;;;1.60;;
9102;SDS011;4587;51.434;6.788;2023-03-05T13:35:18;2.83;;;1.80;;
9102;SDS011;4587;51.434;6.788;2023-03-05T13:37:45;2.27;;;1.70;;
9102;SDS011;4587;51.434;6.788;2023-03-05T13:42:53;3.83;;;2.00;;
9102;SDS011;4587;51.434;6.788;2023-03-05T13:47:54;3.97;;;2.63;;
9102;SDS011;4587;51.434;6.788;2023-03-05T13:50:27;4.60;;;2.60;;
9102;SDS011;4587;51.434;6.788;2023-03-05T13:52:55;4.73;;;2.30;;
9102;SDS011;4587;51.434;6.788;2023-03-05T13:55:37;3.47;;;2.10;;
9102;SDS011;4587;51.434;6.788;2023-03-05T13:58:03;4.40;;;2.70;;
9102;SDS011;4587;51.434;6.788;2023-03-05T14:03:13;4.80;;;2.67;;
9102;SDS011;4587;51.434;6.788;2023-03-05T14:05:51;7.57;;;2.90;;
9102;SDS011;4587;51.434;6.788;2023-03-05T14:08:27;7.10;;;2.57;;
9102;SDS011;4587;51.434;6.788;2023-03-05T14:11:11;4.53;;;2.60;;
9102;SDS011;4587;51.434;6.788;2023-03-05T14:13:41;6.03;;;2.90;;
9102;SDS011;4587;51.434;6.788;2023-03-05T14:16:15;7.37;;;2.77;;
9102;SDS011;4587;51.434;6.788;2023-03-05T14:18:53;3.87;;;2.50;;
9102;SDS011;4587;51.434;6.788;2023-03-05T14:21:21;3.70;;;2.93;;
9102;SDS011;4587;51.434;6.788;2023-03-05T14:23:48;5.40;;;3.27;;
9102;SDS011;4587;51.434;6.788;2023-03-05T14:26:18;5.63;;;3.10;;
9102;SDS011;4587;51.434;6.788;2023-03-05T14:29:00;3.60;;;2.77;;
9102;SDS011;4587;51.434;6.788;2023-03-05T14:31:28;4.57;;;3.43;;
9102;SDS011;4587;51.434;6.788;2023-03-05T14:34:00;3.67;;;2.90;;
9102;SDS011;4587;51.434;6.788;2023-03-05T14:36:28;5.27;;;3.10;;
9102;SDS011;4587;51.434;6.788;2023-03-05T14:38:55;5.67;;;3.07;;
9102;SDS011;4587;51.434;6.788;2023-03-05T14:44:19;3.63;;;2.87;;
9102;SDS011;4587;51.434;6.788;2023-03-05T14:46:49;3.80;;;2.80;;
9102;SDS011;4587;51.434;6.788;2023-03-05T14:49:15;4.77;;;3.17;;
9102;SDS011;4587;51.434;6.788;2023-03-05T14:51:41;3.47;;;2.60;;
9102;SDS011;4587;51.434;6.788;2023-03-05T14:54:16;3.60;;;2.80;;
9102;SDS011;4587;51.434;6.788;2023-03-05T14:56:44;3.27;;;2.80;;
9102;SDS011;4587;51.434;6.788;2023-03-05T14:59:09;3.90;;;3.07;;
9102;SDS011;4587;51.434;6.788;2023-03-05T15:01:36;3.63;;;3.03;;
9102;SDS011;4587;51.434;6.788;2023-03-05T15:04:01;5.10;;;3.10;;
9102;SDS011;4587;51.434;6.788;2023-03-05T15:06:29;3.77;;;2.80;;
9102;SDS011;4587;51.434;6.788;2023-03-05T15:08:58;3.77;;;2.67;;
9102;SDS011;4587;51.434;6.788;2023-03-05T15:11:24;3.77;;;2.47;;
9102;SDS011;4587;51.434;6.788;2023-03-05T15:13:50;3.00;;;2.30;;
9102;SDS011;4587;51.434;6.788;2023-03-05T15:16:16;2.80;;;2.50;;
9102;SDS011;4587;51.434;6.788;2023-03-05T15:18:43;4.43;;;3.00;;
9102;SDS011;4587;51.434;6.788;2023-03-05T15:21:08;3.83;;;2.90;;
9102;SDS011;4587;51.434;6.788;2023-03-05T15:23:34;3.30;;;2.80;;
9102;SDS011;4587;51.434;6.788;2023-03-05T15:26:02;3.37;;;2.77;;
9102;SDS011;4587;51.434;6.788;2023-03-05T15:28:31;5.03;;;2.83;;
9102;SDS011;4587;51.434;6.788;2023-03-05T15:30:59;4.63;;;2.67;;
9102;SDS011;4587;51.434;6.788;2023-03-05T15:33:25;3.07;;;2.77;;
9102;SDS011;4587;51.434;6.788;2023-03-05T15:35:52;4.17;;;3.00;;
9102;SDS011;4587;51.434;6.788;2023-03-05T15:38:18;3.00;;;2.70;;
9102;SDS011;4587;51.434;6.788;2023-03-05T15:40:43;2.83;;;2.50;;
9102;SDS011;4587;51.434;6.788;2023-03-05T15:43:09;3.57;;;2.50;;
9102;SDS011;4587;51.434;6.788;2023-03-05T15:45:35;4.17;;;2.30;;
9102;SDS011;4587;51.434;6.788;2023-03-05T15:48:01;3.33;;;2.70;;
9102;SDS011;4587;51.434;6.788;2023-03-05T15:50:26;4.30;;;2.80;;
9102;SDS011;4587;51.434;6.788;2023-03-05T15:52:52;3.33;;;2.70;;
9102;SDS011;4587;51.434;6.788;2023-03-05T15:55:18;4.63;;;2.77;;
9102;SDS011;4587;51.434;6.788;2023-03-05T15:57:45;3.03;;;2.30;;
9102;SDS011;4587;51.434;6.788;2023-03-05T16:00:13;3.07;;;2.67;;
9102;SDS011;4587;51.434;6.788;2023-03-05T16:02:40;3.53;;;2.60;;
9102;SDS011;4587;51.434;6.788;2023-03-05T16:05:05;4.30;;;2.67;;
9102;SDS011;4587;51.434;6.788;2023-03-05T16:07:32;5.60;;;2.60;;
9102;SDS011;4587;51.434;6.788;2023-03-05T16:10:00;4.50;;;2.50;;
9102;SDS011;4587;51.434;6.788;2023-03-05T16:12:27;3.20;;;2.20;;
9102;SDS011;4587;51.434;6.788;2023-03-05T16:14:57;3.87;;;2.40;;
9102;SDS011;4587;51.434;6.788;2023-03-05T16:17:23;3.20;;;2.63;;
9102;SDS011;4587;51.434;6.788;2023-03-05T16:19:50;3.07;;;2.40;;
9102;SDS011;4587;51.434;6.788;2023-03-05T16:22:18;5.37;;;3.20;;
9102;SDS011;4587;51.434;6.788;2023-03-05T16:24:44;3.90;;;3.17;;
9102;SDS011;4587;51.434;6.788;2023-03-05T16:27:09;8.23;;;7.07;;
9102;SDS011;4587;51.434;6.788;2023-03-05T16:29:35;7.67;;;5.63;;
9102;SDS011;4587;51.434;6.788;2023-03-05T16:32:02;5.93;;;4.80;;
9102;SDS011;4587;51.434;6.788;2023-03-05T16:34:29;5.23;;;4.17;;
9102;SDS011;4587;51.434;6.788;2023-03-05T16:36:56;5.87;;;4.30;;
9102;SDS011;4587;51.434;6.788;2023-03-05T16:39:25;5.30;;;3.63;;
9102;SDS011;4587;51.434;6.788;2023-03-05T16:41:52;4.57;;;3.50;;
9102;SDS011;4587;51.434;6.788;2023-03-05T16:44:17;4.23;;;3.57;;
9102;SDS011;4587;51.434;6.788;2023-03-05T16:46:43;6.10;;;4.10;;
9102;SDS011;4587;51.434;6.788;2023-03-05T16:49:13;6.37;;;3.50;;
9102;SDS011;4587;51.434;6.788;2023-03-05T16:51:39;3.83;;;3.07;;
9102;SDS011;4587;51.434;6.788;2023-03-05T16:54:05;5.63;;;3.40;;
9102;SDS011;4587;51.434;6.788;2023-03-05T16:56:31;6.53;;;4.00;;
9102;SDS011;4587;51.434;6.788;2023-03-05T16:58:57;7.77;;;6.30;;